sensor_id;sensor_type;location;lat;lon;timestamp;P1;durP1;ratioP1;P2;durP2;ratioP2
13568;SDS011;6856;51.460;7.158;2023-08-08T00:01:20;1.60;;;1.20;;
13568;SDS011;6856;51.460;7.158;2023-08-08T00:03:53;1.57;;;0.90;;
13568;SDS011;6856;51.460;7.158;2023-08-08T00:06:33;1.67;;;1.10;;
13568;SDS011;6856;51.460;7.158;2023-08-08T00:09:07;2.23;;;1.20;;
13568;SDS011;6856;51.460;7.158;2023-08-08T00:11:42;2.03;;;1.40;;
13568;SDS011;6856;51.460;7.158;2023-08-08T00:14:16;1.83;;;1.37;;
13568;SDS011;6856;51.460;7.158;2023-08-08T00:16:50;1.90;;;1.40;;
13568;SDS011;6856;51.460;7.158;2023-08-08T00:19:24;1.37;;;1.10;;
13568;SDS011;6856;51.460;7.158;2023-08-08T00:21:58;1.20;;;1.10;;
13568;SDS011;6856;51.460;7.158;2023-08-08T00:24:32;2.37;;;1.10;;
13568;SDS011;6856;51.460;7.158;2023-08-08T00:27:14;2.27;;;1.03;;
13568;SDS011;6856;51.460;7.158;2023-08-08T00:29:47;2.10;;;1.20;;
13568;SDS011;6856;51.460;7.158;2023-08-08T00:32:22;1.63;;;1.20;;
13568;SDS011;6856;51.460;7.158;2023-08-08T00:34:55;2.87;;;1.20;;
13568;SDS011;6856;51.460;7.158;2023-08-08T00:37:35;2.40;;;1.10;;
13568;SDS011;6856;51.460;7.158;2023-08-08T00:40:09;2.37;;;1.43;;
13568;SDS011;6856;51.460;7.158;2023-08-08T00:42:45;1.50;;;1.20;;
13568;SDS011;6856;51.460;7.158;2023-08-08T00:45:19;1.30;;;0.90;;
13568;SDS011;6856;51.460;7.158;2023-08-08T00:47:52;2.10;;;1.03;;
13568;SDS011;6856;51.460;7.158;2023-08-08T00:50:26;3.60;;;1.50;;
13568;SDS011;6856;51.460;7.158;2023-08-08T00:53:00;2.10;;;1.13;;
13568;SDS011;6856;51.460;7.158;2023-08-08T00:55:34;2.03;;;1.20;;
13568;SDS011;6856;51.460;7.158;2023-08-08T00:58:10;2.40;;;1.07;;
13568;SDS011;6856;51.460;7.158;2023-08-08T01:00:45;2.27;;;1.17;;
13568;SDS011;6856;51.460;7.158;2023-08-08T01:03:19;1.10;;;0.93;;
13568;SDS011;6856;51.460;7.158;2023-08-08T01:06:01;1.87;;;1.17;;
13568;SDS011;6856;51.460;7.158;2023-08-08T01:08:43;1.50;;;1.27;;
13568;SDS011;6856;51.460;7.158;2023-08-08T01:11:24;2.70;;;1.60;;
13568;SDS011;6856;51.460;7.158;2023-08-08T01:17:04;2.57;;;1.17;;
13568;SDS011;6856;51.460;7.158;2023-08-08T01:19:39;1.50;;;1.30;;
13568;SDS011;6856;51.460;7.158;2023-08-08T01:25:44;2.63;;;1.27;;
13568;SDS011;6856;51.460;7.158;2023-08-08T01:28:20;1.53;;;1.17;;
13568;SDS011;6856;51.460;7.158;2023-08-08T01:30:54;2.00;;;1.10;;
13568;SDS011;6856;51.460;7.158;2023-08-08T01:33:28;2.03;;;1.30;;
13568;SDS011;6856;51.460;7.158;2023-08-08T01:36:03;1.43;;;1.00;;
13568;SDS011;6856;51.460;7.158;2023-08-08T01:38:46;3.00;;;1.50;;
13568;SDS011;6856;51.460;7.158;2023-08-08T01:41:26;2.77;;;1.40;;
13568;SDS011;6856;51.460;7.158;2023-08-08T01:44:01;2.10;;;1.50;;
13568;SDS011;6856;51.460;7.158;2023-08-08T01:46:35;1.73;;;1.20;;
13568;SDS011;6856;51.460;7.158;2023-08-08T01:49:16;1.80;;;1.37;;
13568;SDS011;6856;51.460;7.158;2023-08-08T01:51:50;1.73;;;1.10;;
13568;SDS011;6856;51.460;7.158;2023-08-08T01:54:24;3.67;;;1.37;;
13568;SDS011;6856;51.460;7.158;2023-08-08T01:56:59;3.37;;;1.53;;
13568;SDS011;6856;51.460;7.158;2023-08-08T01:59:33;2.60;;;1.23;;
13568;SDS011;6856;51.460;7.158;2023-08-08T02:02:06;2.33;;;1.30;;
13568;SDS011;6856;51.460;7.158;2023-08-08T02:04:40;2.00;;;1.00;;
13568;SDS011;6856;51.460;7.158;2023-08-08T02:07:14;2.20;;;1.43;;
13568;SDS011;6856;51.460;7.158;2023-08-08T02:09:48;2.43;;;1.20;;
13568;SDS011;6856;51.460;7.158;2023-08-08T02:12:24;2.67;;;1.43;;
13568;SDS011;6856;51.460;7.158;2023-08-08T02:14:57;2.33;;;1.20;;
13568;SDS011;6856;51.460;7.158;2023-08-08T02:17:31;2.27;;;1.33;;
13568;SDS011;6856;51.460;7.158;2023-08-08T02:20:06;4.70;;;1.50;;
13568;SDS011;6856;51.460;7.158;2023-08-08T02:25:40;2.80;;;1.10;;
13568;SDS011;6856;51.460;7.158;2023-08-08T02:31:15;1.83;;;1.40;;
13568;SDS011;6856;51.460;7.158;2023-08-08T02:33:52;2.60;;;1.40;;
13568;SDS011;6856;51.460;7.158;2023-08-08T02:39:57;1.90;;;1.50;;
13568;SDS011;6856;51.460;7.158;2023-08-08T02:42:32;3.67;;;1.53;;
13568;SDS011;6856;51.460;7.158;2023-08-08T02:45:08;2.63;;;1.40;;
13568;SDS011;6856;51.460;7.158;2023-08-08T02:47:42;2.37;;;1.53;;
13568;SDS011;6856;51.460;7.158;2023-08-08T02:50:17;1.60;;;1.23;;
13568;SDS011;6856;51.460;7.158;2023-08-08T02:52:50;2.00;;;1.37;;
13568;SDS011;6856;51.460;7.158;2023-08-08T02:55:24;2.70;;;1.43;;
13568;SDS011;6856;51.460;7.158;2023-08-08T02:57:58;3.83;;;1.53;;
13568;SDS011;6856;51.460;7.158;2023-08-08T03:00:34;2.80;;;1.80;;
13568;SDS011;6856;51.460;7.158;2023-08-08T03:03:08;3.17;;;1.60;;
13568;SDS011;6856;51.460;7.158;2023-08-08T03:05:41;2.70;;;1.50;;
13568;SDS011;6856;51.460;7.158;2023-08-08T03:08:16;2.80;;;1.43;;
13568;SDS011;6856;51.460;7.158;2023-08-08T03:10:50;4.77;;;1.83;;
13568;SDS011;6856;51.460;7.158;2023-08-08T03:13:28;2.60;;;1.53;;
13568;SDS011;6856;51.460;7.158;2023-08-08T03:16:04;4.43;;;1.80;;
13568;SDS011;6856;51.460;7.158;2023-08-08T03:18:38;2.83;;;1.70;;
13568;SDS011;6856;51.460;7.158;2023-08-08T03:21:12;4.57;;;1.50;;
13568;SDS011;6856;51.460;7.158;2023-08-08T03:26:45;3.47;;;1.60;;
13568;SDS011;6856;51.460;7.158;2023-08-08T03:29:19;2.20;;;1.70;;
13568;SDS011;6856;51.460;7.158;2023-08-08T03:31:54;2.70;;;1.73;;
13568;SDS011;6856;51.460;7.158;2023-08-08T03:34:28;3.67;;;1.80;;
13568;SDS011;6856;51.460;7.158;2023-08-08T03:37:02;3.90;;;1.70;;
13568;SDS011;6856;51.460;7.158;2023-08-08T03:39:36;4.10;;;1.60;;
13568;SDS011;6856;51.460;7.158;2023-08-08T03:42:10;3.87;;;1.80;;
13568;SDS011;6856;51.460;7.158;2023-08-08T03:44:44;4.33;;;2.00;;
13568;SDS011;6856;51.460;7.158;2023-08-08T03:47:20;3.43;;;1.77;;
13568;SDS011;6856;51.460;7.158;2023-08-08T03:50:00;2.67;;;1.80;;
13568;SDS011;6856;51.460;7.158;2023-08-08T03:52:35;3.43;;;1.93;;
13568;SDS011;6856;51.460;7.158;2023-08-08T03:55:09;2.93;;;1.43;;
13568;SDS011;6856;51.460;7.158;2023-08-08T03:57:43;2.80;;;1.90;;
13568;SDS011;6856;51.460;7.158;2023-08-08T04:03:19;4.63;;;1.70;;
13568;SDS011;6856;51.460;7.158;2023-08-08T04:05:53;4.40;;;2.00;;
13568;SDS011;6856;51.460;7.158;2023-08-08T04:08:27;2.80;;;1.60;;
13568;SDS011;6856;51.460;7.158;2023-08-08T04:11:01;1.80;;;1.30;;
13568;SDS011;6856;51.460;7.158;2023-08-08T04:13:35;2.63;;;1.60;;
13568;SDS011;6856;51.460;7.158;2023-08-08T04:16:08;2.90;;;1.70;;
13568;SDS011;6856;51.460;7.158;2023-08-08T04:18:43;3.97;;;1.53;;
13568;SDS011;6856;51.460;7.158;2023-08-08T04:21:22;3.10;;;1.80;;
13568;SDS011;6856;51.460;7.158;2023-08-08T04:23:59;2.73;;;1.70;;
13568;SDS011;6856;51.460;7.158;2023-08-08T04:29:32;3.60;;;1.70;;
13568;SDS011;6856;51.460;7.158;2023-08-08T04:32:06;2.13;;;1.50;;
13568;SDS011;6856;51.460;7.158;2023-08-08T04:34:41;3.27;;;1.93;;
13568;SDS011;6856;51.460;7.158;2023-08-08T04:41:08;3.03;;;1.90;;
13568;SDS011;6856;51.460;7.158;2023-08-08T04:43:42;3.37;;;1.60;;
13568;SDS011;6856;51.460;7.158;2023-08-08T04:46:19;4.03;;;1.63;;
13568;SDS011;6856;51.460;7.158;2023-08-08T04:48:53;4.53;;;2.00;;
13568;SDS011;6856;51.460;7.158;2023-08-08T04:51:30;3.03;;;1.70;;
13568;SDS011;6856;51.460;7.158;2023-08-08T04:54:04;4.03;;;2.03;;
13568;SDS011;6856;51.460;7.158;2023-08-08T04:56:38;4.03;;;2.40;;
13568;SDS011;6856;51.460;7.158;2023-08-08T05:02:10;3.67;;;2.20;;
13568;SDS011;6856;51.460;7.158;2023-08-08T05:04:43;3.73;;;2.07;;
13568;SDS011;6856;51.460;7.158;2023-08-08T05:07:18;3.73;;;2.20;;
13568;SDS011;6856;51.460;7.158;2023-08-08T05:09:52;3.57;;;1.97;;
13568;SDS011;6856;51.460;7.158;2023-08-08T05:12:26;3.97;;;2.27;;
13568;SDS011;6856;51.460;7.158;2023-08-08T05:14:59;4.53;;;2.47;;
13568;SDS011;6856;51.460;7.158;2023-08-08T05:20:32;4.23;;;2.73;;
13568;SDS011;6856;51.460;7.158;2023-08-08T05:23:08;4.07;;;2.50;;
13568;SDS011;6856;51.460;7.158;2023-08-08T05:25:42;3.87;;;2.90;;
13568;SDS011;6856;51.460;7.158;2023-08-08T05:28:15;5.53;;;2.97;;
13568;SDS011;6856;51.460;7.158;2023-08-08T05:30:54;5.30;;;2.73;;
13568;SDS011;6856;51.460;7.158;2023-08-08T05:33:29;4.43;;;2.80;;
13568;SDS011;6856;51.460;7.158;2023-08-08T05:36:04;5.00;;;2.90;;
13568;SDS011;6856;51.460;7.158;2023-08-08T05:38:39;6.80;;;3.60;;
13568;SDS011;6856;51.460;7.158;2023-08-08T05:41:13;4.70;;;3.20;;
13568;SDS011;6856;51.460;7.158;2023-08-08T05:43:47;7.53;;;3.70;;
13568;SDS011;6856;51.460;7.158;2023-08-08T05:46:21;5.13;;;3.40;;
13568;SDS011;6856;51.460;7.158;2023-08-08T05:49:00;6.47;;;3.80;;
13568;SDS011;6856;51.460;7.158;2023-08-08T05:51:35;4.67;;;2.77;;
13568;SDS011;6856;51.460;7.158;2023-08-08T05:54:11;5.63;;;3.93;;
13568;SDS011;6856;51.460;7.158;2023-08-08T05:56:45;7.17;;;4.17;;
13568;SDS011;6856;51.460;7.158;2023-08-08T05:59:19;6.23;;;4.30;;
13568;SDS011;6856;51.460;7.158;2023-08-08T06:01:52;6.20;;;3.90;;
13568;SDS011;6856;51.460;7.158;2023-08-08T06:04:26;7.37;;;4.40;;
13568;SDS011;6856;51.460;7.158;2023-08-08T06:07:00;6.33;;;4.47;;
13568;SDS011;6856;51.460;7.158;2023-08-08T06:09:36;5.03;;;3.90;;
13568;SDS011;6856;51.460;7.158;2023-08-08T06:12:10;8.73;;;4.27;;
13568;SDS011;6856;51.460;7.158;2023-08-08T06:14:44;6.50;;;4.57;;
13568;SDS011;6856;51.460;7.158;2023-08-08T06:17:17;7.47;;;4.90;;
13568;SDS011;6856;51.460;7.158;2023-08-08T06:19:51;6.30;;;4.47;;
13568;SDS011;6856;51.460;7.158;2023-08-08T06:22:25;7.20;;;4.80;;
13568;SDS011;6856;51.460;7.158;2023-08-08T06:25:01;8.10;;;4.87;;
13568;SDS011;6856;51.460;7.158;2023-08-08T06:27:35;6.60;;;4.50;;
13568;SDS011;6856;51.460;7.158;2023-08-08T06:30:09;8.27;;;4.63;;
13568;SDS011;6856;51.460;7.158;2023-08-08T06:32:44;7.87;;;4.43;;
13568;SDS011;6856;51.460;7.158;2023-08-08T06:35:17;8.00;;;4.40;;
13568;SDS011;6856;51.460;7.158;2023-08-08T06:37:51;8.07;;;5.13;;
13568;SDS011;6856;51.460;7.158;2023-08-08T06:40:26;9.50;;;4.90;;
13568;SDS011;6856;51.460;7.158;2023-08-08T06:43:00;6.43;;;4.50;;
13568;SDS011;6856;51.460;7.158;2023-08-08T06:45:34;6.90;;;4.73;;
13568;SDS011;6856;51.460;7.158;2023-08-08T06:48:08;7.40;;;4.33;;
13568;SDS011;6856;51.460;7.158;2023-08-08T06:50:42;5.80;;;4.77;;
13568;SDS011;6856;51.460;7.158;2023-08-08T06:53:18;7.53;;;4.93;;
13568;SDS011;6856;51.460;7.158;2023-08-08T06:55:54;6.97;;;5.73;;
13568;SDS011;6856;51.460;7.158;2023-08-08T06:58:28;10.20;;;5.80;;
13568;SDS011;6856;51.460;7.158;2023-08-08T07:01:02;7.47;;;5.53;;
13568;SDS011;6856;51.460;7.158;2023-08-08T07:03:37;9.00;;;5.93;;
13568;SDS011;6856;51.460;7.158;2023-08-08T07:06:10;8.07;;;5.13;;
13568;SDS011;6856;51.460;7.158;2023-08-08T07:08:44;9.47;;;5.73;;
13568;SDS011;6856;51.460;7.158;2023-08-08T07:11:20;7.90;;;5.73;;
13568;SDS011;6856;51.460;7.158;2023-08-08T07:13:54;9.60;;;5.90;;
13568;SDS011;6856;51.460;7.158;2023-08-08T07:16:27;12.07;;;6.60;;
13568;SDS011;6856;51.460;7.158;2023-08-08T07:19:01;8.57;;;6.87;;
13568;SDS011;6856;51.460;7.158;2023-08-08T07:21:35;8.97;;;6.80;;
13568;SDS011;6856;51.460;7.158;2023-08-08T07:24:09;11.27;;;7.50;;
13568;SDS011;6856;51.460;7.158;2023-08-08T07:26:45;9.03;;;7.40;;
13568;SDS011;6856;51.460;7.158;2023-08-08T07:29:19;7.90;;;6.20;;
13568;SDS011;6856;51.460;7.158;2023-08-08T07:31:54;9.13;;;6.60;;
13568;SDS011;6856;51.460;7.158;2023-08-08T07:34:28;8.60;;;6.73;;
13568;SDS011;6856;51.460;7.158;2023-08-08T07:37:03;9.20;;;7.03;;
13568;SDS011;6856;51.460;7.158;2023-08-08T07:39:38;9.47;;;6.10;;
13568;SDS011;6856;51.460;7.158;2023-08-08T07:42:13;6.60;;;5.57;;
13568;SDS011;6856;51.460;7.158;2023-08-08T07:44:46;7.97;;;6.03;;
13568;SDS011;6856;51.460;7.158;2023-08-08T07:47:20;8.60;;;5.50;;
13568;SDS011;6856;51.460;7.158;2023-08-08T07:49:54;8.43;;;5.93;;
13568;SDS011;6856;51.460;7.158;2023-08-08T07:52:28;7.10;;;4.83;;
13568;SDS011;6856;51.460;7.158;2023-08-08T07:55:02;7.03;;;4.83;;
13568;SDS011;6856;51.460;7.158;2023-08-08T07:57:38;7.60;;;4.70;;
13568;SDS011;6856;51.460;7.158;2023-08-08T08:00:12;9.07;;;5.23;;
13568;SDS011;6856;51.460;7.158;2023-08-08T08:02:50;7.77;;;4.37;;
13568;SDS011;6856;51.460;7.158;2023-08-08T08:05:24;6.90;;;4.30;;
13568;SDS011;6856;51.460;7.158;2023-08-08T08:07:58;5.80;;;4.10;;
13568;SDS011;6856;51.460;7.158;2023-08-08T08:10:32;6.80;;;4.27;;
13568;SDS011;6856;51.460;7.158;2023-08-08T08:13:08;6.40;;;3.73;;
13568;SDS011;6856;51.460;7.158;2023-08-08T08:15:43;6.47;;;3.80;;
13568;SDS011;6856;51.460;7.158;2023-08-08T08:18:18;8.07;;;3.33;;
13568;SDS011;6856;51.460;7.158;2023-08-08T08:20:52;6.00;;;3.80;;
13568;SDS011;6856;51.460;7.158;2023-08-08T08:23:27;4.60;;;3.37;;
13568;SDS011;6856;51.460;7.158;2023-08-08T08:26:04;3.83;;;3.20;;
13568;SDS011;6856;51.460;7.158;2023-08-08T08:28:40;6.23;;;3.27;;
13568;SDS011;6856;51.460;7.158;2023-08-08T08:31:19;3.60;;;3.03;;
13568;SDS011;6856;51.460;7.158;2023-08-08T08:33:52;5.00;;;2.80;;
13568;SDS011;6856;51.460;7.158;2023-08-08T08:36:27;7.53;;;3.30;;
13568;SDS011;6856;51.460;7.158;2023-08-08T08:39:01;5.47;;;2.90;;
13568;SDS011;6856;51.460;7.158;2023-08-08T08:41:35;3.53;;;2.63;;
13568;SDS011;6856;51.460;7.158;2023-08-08T08:44:11;4.93;;;2.60;;
13568;SDS011;6856;51.460;7.158;2023-08-08T08:46:48;4.73;;;2.80;;
13568;SDS011;6856;51.460;7.158;2023-08-08T08:49:26;4.13;;;2.30;;
13568;SDS011;6856;51.460;7.158;2023-08-08T08:52:04;4.97;;;2.53;;
13568;SDS011;6856;51.460;7.158;2023-08-08T08:54:38;4.83;;;2.43;;
13568;SDS011;6856;51.460;7.158;2023-08-08T08:57:13;4.00;;;1.97;;
13568;SDS011;6856;51.460;7.158;2023-08-08T08:59:52;4.10;;;2.20;;
13568;SDS011;6856;51.460;7.158;2023-08-08T09:02:25;4.30;;;2.10;;
13568;SDS011;6856;51.460;7.158;2023-08-08T09:04:59;4.23;;;2.30;;
13568;SDS011;6856;51.460;7.158;2023-08-08T09:07:36;4.20;;;2.47;;
13568;SDS011;6856;51.460;7.158;2023-08-08T09:10:10;4.70;;;2.00;;
13568;SDS011;6856;51.460;7.158;2023-08-08T09:12:44;4.83;;;2.23;;
13568;SDS011;6856;51.460;7.158;2023-08-08T09:15:21;4.30;;;2.00;;
13568;SDS011;6856;51.460;7.158;2023-08-08T09:17:54;3.63;;;1.77;;
13568;SDS011;6856;51.460;7.158;2023-08-08T09:20:28;3.80;;;2.07;;
13568;SDS011;6856;51.460;7.158;2023-08-08T09:23:05;2.70;;;1.43;;
13568;SDS011;6856;51.460;7.158;2023-08-08T09:25:39;5.53;;;2.00;;
13568;SDS011;6856;51.460;7.158;2023-08-08T09:28:13;2.60;;;1.60;;
13568;SDS011;6856;51.460;7.158;2023-08-08T09:30:48;3.17;;;1.63;;
13568;SDS011;6856;51.460;7.158;2023-08-08T09:33:22;3.43;;;1.77;;
13568;SDS011;6856;51.460;7.158;2023-08-08T09:35:56;5.80;;;2.33;;
13568;SDS011;6856;51.460;7.158;2023-08-08T09:38:30;3.50;;;1.83;;
13568;SDS011;6856;51.460;7.158;2023-08-08T09:41:04;4.80;;;2.10;;
13568;SDS011;6856;51.460;7.158;2023-08-08T09:43:39;3.60;;;1.93;;
13568;SDS011;6856;51.460;7.158;2023-08-08T09:46:17;3.10;;;1.80;;
13568;SDS011;6856;51.460;7.158;2023-08-08T09:48:52;2.93;;;1.73;;
13568;SDS011;6856;51.460;7.158;2023-08-08T09:51:28;4.80;;;1.67;;
13568;SDS011;6856;51.460;7.158;2023-08-08T09:54:06;2.83;;;1.67;;
13568;SDS011;6856;51.460;7.158;2023-08-08T09:56:40;3.77;;;1.77;;
13568;SDS011;6856;51.460;7.158;2023-08-08T09:59:16;3.23;;;1.63;;
13568;SDS011;6856;51.460;7.158;2023-08-08T10:01:53;2.93;;;1.70;;
13568;SDS011;6856;51.460;7.158;2023-08-08T10:04:29;8.03;;;2.20;;
13568;SDS011;6856;51.460;7.158;2023-08-08T10:07:03;3.17;;;1.77;;
13568;SDS011;6856;51.460;7.158;2023-08-08T10:09:37;4.80;;;2.00;;
13568;SDS011;6856;51.460;7.158;2023-08-08T10:12:12;4.27;;;2.20;;
13568;SDS011;6856;51.460;7.158;2023-08-08T10:14:47;3.53;;;1.90;;
13568;SDS011;6856;51.460;7.158;2023-08-08T10:17:23;3.10;;;1.90;;
13568;SDS011;6856;51.460;7.158;2023-08-08T10:19:57;4.20;;;2.03;;
13568;SDS011;6856;51.460;7.158;2023-08-08T10:22:41;4.50;;;2.00;;
13568;SDS011;6856;51.460;7.158;2023-08-08T10:25:19;3.97;;;1.70;;
13568;SDS011;6856;51.460;7.158;2023-08-08T10:28:02;4.07;;;2.03;;
13568;SDS011;6856;51.460;7.158;2023-08-08T10:31:02;3.30;;;1.70;;
13568;SDS011;6856;51.460;7.158;2023-08-08T10:33:41;3.30;;;1.70;;
13568;SDS011;6856;51.460;7.158;2023-08-08T10:36:16;2.90;;;1.80;;
13568;SDS011;6856;51.460;7.158;2023-08-08T10:38:50;2.63;;;1.80;;
13568;SDS011;6856;51.460;7.158;2023-08-08T10:41:26;3.80;;;1.63;;
13568;SDS011;6856;51.460;7.158;2023-08-08T10:44:08;3.27;;;1.50;;
13568;SDS011;6856;51.460;7.158;2023-08-08T10:46:42;3.20;;;1.63;;
13568;SDS011;6856;51.460;7.158;2023-08-08T10:49:18;2.53;;;1.37;;
13568;SDS011;6856;51.460;7.158;2023-08-08T10:51:53;2.97;;;1.67;;
13568;SDS011;6856;51.460;7.158;2023-08-08T10:54:27;3.70;;;1.50;;
13568;SDS011;6856;51.460;7.158;2023-08-08T10:57:04;4.47;;;1.77;;
13568;SDS011;6856;51.460;7.158;2023-08-08T10:59:51;3.47;;;1.73;;
13568;SDS011;6856;51.460;7.158;2023-08-08T11:02:25;2.37;;;1.57;;
13568;SDS011;6856;51.460;7.158;2023-08-08T11:05:04;3.70;;;1.63;;
13568;SDS011;6856;51.460;7.158;2023-08-08T11:07:39;2.87;;;1.40;;
13568;SDS011;6856;51.460;7.158;2023-08-08T11:10:16;4.43;;;1.90;;
13568;SDS011;6856;51.460;7.158;2023-08-08T11:12:54;2.70;;;1.60;;
13568;SDS011;6856;51.460;7.158;2023-08-08T11:18:29;2.93;;;1.73;;
13568;SDS011;6856;51.460;7.158;2023-08-08T11:21:10;3.40;;;1.67;;
13568;SDS011;6856;51.460;7.158;2023-08-08T11:23:49;3.40;;;1.67;;
13568;SDS011;6856;51.460;7.158;2023-08-08T11:29:23;5.23;;;1.80;;
13568;SDS011;6856;51.460;7.158;2023-08-08T11:32:02;3.60;;;1.80;;
13568;SDS011;6856;51.460;7.158;2023-08-08T11:34:37;2.93;;;1.70;;
13568;SDS011;6856;51.460;7.158;2023-08-08T11:37:13;3.77;;;1.83;;
13568;SDS011;6856;51.460;7.158;2023-08-08T11:39:47;3.83;;;1.70;;
13568;SDS011;6856;51.460;7.158;2023-08-08T11:42:22;2.83;;;1.60;;
13568;SDS011;6856;51.460;7.158;2023-08-08T11:44:55;2.97;;;1.60;;
13568;SDS011;6856;51.460;7.158;2023-08-08T11:47:30;3.70;;;1.60;;
13568;SDS011;6856;51.460;7.158;2023-08-08T11:50:08;3.10;;;1.40;;
13568;SDS011;6856;51.460;7.158;2023-08-08T11:52:45;3.13;;;1.80;;
13568;SDS011;6856;51.460;7.158;2023-08-08T11:55:20;4.43;;;2.00;;
13568;SDS011;6856;51.460;7.158;2023-08-08T11:57:59;3.77;;;1.80;;
13568;SDS011;6856;51.460;7.158;2023-08-08T12:00:34;3.17;;;1.70;;
13568;SDS011;6856;51.460;7.158;2023-08-08T12:03:09;3.43;;;1.80;;
13568;SDS011;6856;51.460;7.158;2023-08-08T12:05:46;3.57;;;1.87;;
13568;SDS011;6856;51.460;7.158;2023-08-08T12:08:22;4.53;;;2.00;;
13568;SDS011;6856;51.460;7.158;2023-08-08T12:10:57;3.60;;;1.47;;
13568;SDS011;6856;51.460;7.158;2023-08-08T12:13:36;2.90;;;1.80;;
13568;SDS011;6856;51.460;7.158;2023-08-08T12:16:15;4.77;;;1.70;;
13568;SDS011;6856;51.460;7.158;2023-08-08T12:18:51;2.30;;;1.37;;
13568;SDS011;6856;51.460;7.158;2023-08-08T12:21:25;2.80;;;1.50;;
13568;SDS011;6856;51.460;7.158;2023-08-08T12:24:01;2.60;;;1.60;;
13568;SDS011;6856;51.460;7.158;2023-08-08T12:26:35;2.45;;;1.70;;
13568;SDS011;6856;51.460;7.158;2023-08-08T12:29:09;5.57;;;1.77;;
13568;SDS011;6856;51.460;7.158;2023-08-08T12:31:44;5.67;;;1.90;;
13568;SDS011;6856;51.460;7.158;2023-08-08T12:34:20;3.83;;;1.80;;
13568;SDS011;6856;51.460;7.158;2023-08-08T12:36:53;2.45;;;1.52;;
13568;SDS011;6856;51.460;7.158;2023-08-08T12:39:29;2.97;;;1.73;;
13568;SDS011;6856;51.460;7.158;2023-08-08T12:42:03;2.53;;;1.50;;
13568;SDS011;6856;51.460;7.158;2023-08-08T12:44:37;3.50;;;1.67;;
13568;SDS011;6856;51.460;7.158;2023-08-08T12:47:11;2.30;;;1.70;;
13568;SDS011;6856;51.460;7.158;2023-08-08T12:49:46;3.47;;;1.87;;
13568;SDS011;6856;51.460;7.158;2023-08-08T12:52:20;2.80;;;1.42;;
13568;SDS011;6856;51.460;7.158;2023-08-08T12:54:58;4.83;;;2.00;;
13568;SDS011;6856;51.460;7.158;2023-08-08T12:57:36;1.92;;;1.52;;
13568;SDS011;6856;51.460;7.158;2023-08-08T13:00:13;2.83;;;1.55;;
13568;SDS011;6856;51.460;7.158;2023-08-08T13:02:47;2.77;;;1.60;;
13568;SDS011;6856;51.460;7.158;2023-08-08T13:05:22;2.25;;;1.35;;
13568;SDS011;6856;51.460;7.158;2023-08-08T13:07:56;3.58;;;1.85;;
13568;SDS011;6856;51.460;7.158;2023-08-08T13:10:31;3.45;;;1.75;;
13568;SDS011;6856;51.460;7.158;2023-08-08T13:13:05;4.35;;;1.58;;
13568;SDS011;6856;51.460;7.158;2023-08-08T13:15:39;4.40;;;1.75;;
13568;SDS011;6856;51.460;7.158;2023-08-08T13:18:18;3.15;;;1.85;;
13568;SDS011;6856;51.460;7.158;2023-08-08T13:20:52;3.15;;;1.45;;
13568;SDS011;6856;51.460;7.158;2023-08-08T13:23:26;3.43;;;1.77;;
13568;SDS011;6856;51.460;7.158;2023-08-08T13:26:02;3.23;;;1.50;;
13568;SDS011;6856;51.460;7.158;2023-08-08T13:28:36;3.33;;;1.60;;
13568;SDS011;6856;51.460;7.158;2023-08-08T13:31:11;4.28;;;1.90;;
13568;SDS011;6856;51.460;7.158;2023-08-08T13:33:45;2.87;;;1.70;;
13568;SDS011;6856;51.460;7.158;2023-08-08T13:36:19;2.00;;;1.40;;
13568;SDS011;6856;51.460;7.158;2023-08-08T13:38:52;3.23;;;1.30;;
13568;SDS011;6856;51.460;7.158;2023-08-08T13:41:28;3.60;;;1.33;;
13568;SDS011;6856;51.460;7.158;2023-08-08T13:44:02;4.67;;;1.90;;
13568;SDS011;6856;51.460;7.158;2023-08-08T13:46:36;2.27;;;1.40;;
13568;SDS011;6856;51.460;7.158;2023-08-08T13:49:10;3.77;;;1.33;;
13568;SDS011;6856;51.460;7.158;2023-08-08T13:51:51;2.07;;;1.40;;
13568;SDS011;6856;51.460;7.158;2023-08-08T13:54:25;2.43;;;1.30;;
13568;SDS011;6856;51.460;7.158;2023-08-08T13:57:00;2.10;;;1.38;;
13568;SDS011;6856;51.460;7.158;2023-08-08T13:59:34;2.40;;;1.27;;
13568;SDS011;6856;51.460;7.158;2023-08-08T14:02:13;2.90;;;1.52;;
13568;SDS011;6856;51.460;7.158;2023-08-08T14:04:49;2.20;;;1.30;;
13568;SDS011;6856;51.460;7.158;2023-08-08T14:07:23;2.23;;;1.40;;
13568;SDS011;6856;51.460;7.158;2023-08-08T14:09:57;3.33;;;1.50;;
13568;SDS011;6856;51.460;7.158;2023-08-08T14:12:33;3.60;;;1.40;;
13568;SDS011;6856;51.460;7.158;2023-08-08T14:15:06;2.77;;;1.20;;
13568;SDS011;6856;51.460;7.158;2023-08-08T14:17:42;2.67;;;1.30;;
13568;SDS011;6856;51.460;7.158;2023-08-08T14:20:18;3.10;;;1.30;;
13568;SDS011;6856;51.460;7.158;2023-08-08T14:22:52;2.60;;;1.20;;
13568;SDS011;6856;51.460;7.158;2023-08-08T14:28:26;2.70;;;1.03;;
13568;SDS011;6856;51.460;7.158;2023-08-08T14:31:01;1.80;;;1.30;;
13568;SDS011;6856;51.460;7.158;2023-08-08T14:33:37;2.97;;;1.20;;
13568;SDS011;6856;51.460;7.158;2023-08-08T14:36:11;3.27;;;1.20;;
13568;SDS011;6856;51.460;7.158;2023-08-08T14:38:44;1.57;;;1.10;;
13568;SDS011;6856;51.460;7.158;2023-08-08T14:41:19;3.13;;;1.37;;
13568;SDS011;6856;51.460;7.158;2023-08-08T14:43:54;1.90;;;1.20;;
13568;SDS011;6856;51.460;7.158;2023-08-08T14:46:28;2.07;;;1.10;;
13568;SDS011;6856;51.460;7.158;2023-08-08T14:49:08;1.10;;;0.90;;
13568;SDS011;6856;51.460;7.158;2023-08-08T14:51:47;1.50;;;1.10;;
13568;SDS011;6856;51.460;7.158;2023-08-08T14:54:21;2.80;;;1.33;;
13568;SDS011;6856;51.460;7.158;2023-08-08T14:56:55;2.93;;;1.10;;
13568;SDS011;6856;51.460;7.158;2023-08-08T15:02:31;2.60;;;1.50;;
13568;SDS011;6856;51.460;7.158;2023-08-08T15:05:05;2.30;;;1.27;;
13568;SDS011;6856;51.460;7.158;2023-08-08T15:10:41;1.97;;;1.50;;
13568;SDS011;6856;51.460;7.158;2023-08-08T15:13:15;2.67;;;1.40;;
13568;SDS011;6856;51.460;7.158;2023-08-08T15:15:51;2.10;;;1.17;;
13568;SDS011;6856;51.460;7.158;2023-08-08T15:18:25;2.20;;;0.90;;
13568;SDS011;6856;51.460;7.158;2023-08-08T15:20:59;3.00;;;1.03;;
13568;SDS011;6856;51.460;7.158;2023-08-08T15:26:32;1.27;;;0.90;;
13568;SDS011;6856;51.460;7.158;2023-08-08T15:29:06;1.80;;;0.93;;
13568;SDS011;6856;51.460;7.158;2023-08-08T15:31:42;1.27;;;0.90;;
13568;SDS011;6856;51.460;7.158;2023-08-08T15:34:16;1.10;;;0.90;;
13568;SDS011;6856;51.460;7.158;2023-08-08T15:36:50;1.27;;;1.00;;
13568;SDS011;6856;51.460;7.158;2023-08-08T15:39:24;1.33;;;0.80;;
13568;SDS011;6856;51.460;7.158;2023-08-08T15:41:58;1.00;;;0.80;;
13568;SDS011;6856;51.460;7.158;2023-08-08T15:44:32;2.57;;;0.80;;
13568;SDS011;6856;51.460;7.158;2023-08-08T15:47:07;2.10;;;0.90;;
13568;SDS011;6856;51.460;7.158;2023-08-08T15:49:42;1.33;;;0.60;;
13568;SDS011;6856;51.460;7.158;2023-08-08T15:52:16;2.27;;;0.80;;
13568;SDS011;6856;51.460;7.158;2023-08-08T15:54:50;1.15;;;0.70;;
13568;SDS011;6856;51.460;7.158;2023-08-08T15:57:24;3.03;;;0.70;;
13568;SDS011;6856;51.460;7.158;2023-08-08T15:59:58;0.60;;;0.50;;
13568;SDS011;6856;51.460;7.158;2023-08-08T16:02:33;0.60;;;0.52;;
13568;SDS011;6856;51.460;7.158;2023-08-08T16:05:08;1.45;;;0.60;;
13568;SDS011;6856;51.460;7.158;2023-08-08T16:07:42;0.80;;;0.60;;
13568;SDS011;6856;51.460;7.158;2023-08-08T16:10:16;0.97;;;0.77;;
13568;SDS011;6856;51.460;7.158;2023-08-08T16:12:50;1.30;;;0.70;;
13568;SDS011;6856;51.460;7.158;2023-08-08T16:15:24;1.50;;;0.53;;
13568;SDS011;6856;51.460;7.158;2023-08-08T16:18:00;0.83;;;0.70;;
13568;SDS011;6856;51.460;7.158;2023-08-08T16:20:34;1.67;;;0.77;;
13568;SDS011;6856;51.460;7.158;2023-08-08T16:23:08;0.90;;;0.70;;
13568;SDS011;6856;51.460;7.158;2023-08-08T16:25:41;0.77;;;0.60;;
13568;SDS011;6856;51.460;7.158;2023-08-08T16:28:15;2.37;;;0.83;;
13568;SDS011;6856;51.460;7.158;2023-08-08T16:33:50;0.53;;;0.53;;
13568;SDS011;6856;51.460;7.158;2023-08-08T16:36:24;1.50;;;1.00;;
13568;SDS011;6856;51.460;7.158;2023-08-08T16:38:58;0.57;;;0.57;;
13568;SDS011;6856;51.460;7.158;2023-08-08T16:41:48;0.83;;;0.60;;
13568;SDS011;6856;51.460;7.158;2023-08-08T16:44:21;0.90;;;0.70;;